sensor_id;sensor_type;location;lat;lon;timestamp;pressure;altitude;pressure_sealevel;temperature;humidity
48622;BME280;34421;48.944;9.460;2023-02-23T00:01:38;98194.72;;;9.79;67.56
48622;BME280;34421;48.944;9.460;2023-02-23T00:04:03;98191.84;;;9.81;66.67
48622;BME280;34421;48.944;9.460;2023-02-23T00:06:29;98193.25;;;9.84;67.11
48622;BME280;34421;48.944;9.460;2023-02-23T00:08:55;98183.22;;;9.86;67.12
48622;BME280;34421;48.944;9.460;2023-02-23T00:11:22;98183.63;;;9.89;66.70
48622;BME280;34421;48.944;9.460;2023-02-23T00:13:48;98183.41;;;9.91;67.11
48622;BME280;34421;48.944;9.460;2023-02-23T00:16:17;98183.00;;;9.94;66.55
48622;BME280;34421;48.944;9.460;2023-02-23T00:18:43;98181.16;;;9.94;66.76
48622;BME280;34421;48.944;9.460;2023-02-23T00:21:12;98181.56;;;9.91;67.71
48622;BME280;34421;48.944;9.460;2023-02-23T00:23:39;98182.38;;;9.92;67.90
48622;BME280;34421;48.944;9.460;2023-02-23T00:26:04;98182.38;;;9.92;66.94
48622;BME280;34421;48.944;9.460;2023-02-23T00:28:30;98182.38;;;9.92;68.23
48622;BME280;34421;48.944;9.460;2023-02-23T00:30:55;98177.06;;;9.92;67.63
48622;BME280;34421;48.944;9.460;2023-02-23T00:33:20;98187.28;;;9.95;67.55
48622;BME280;34421;48.944;9.460;2023-02-23T00:35:45;98177.44;;;9.95;68.29
48622;BME280;34421;48.944;9.460;2023-02-23T00:38:11;98174.34;;;9.98;67.12
48622;BME280;34421;48.944;9.460;2023-02-23T00:40:38;98177.41;;;10.02;68.24
48622;BME280;34421;48.944;9.460;2023-02-23T00:43:04;98172.50;;;10.06;67.66
48622;BME280;34421;48.944;9.460;2023-02-23T00:45:29;98177.38;;;10.09;67.19
48622;BME280;34421;48.944;9.460;2023-02-23T00:47:55;98174.50;;;10.10;67.19
48622;BME280;34421;48.944;9.460;2023-02-23T00:50:20;98182.28;;;10.12;68.35
48622;BME280;34421;48.944;9.460;2023-02-23T00:52:45;98179.81;;;10.10;67.71
48622;BME280;34421;48.944;9.460;2023-02-23T00:55:11;98175.72;;;10.08;68.54
48622;BME280;34421;48.944;9.460;2023-02-23T00:57:37;98173.88;;;10.08;68.20
48622;BME280;34421;48.944;9.460;2023-02-23T01:00:06;98170.03;;;10.04;67.12
48622;BME280;34421;48.944;9.460;2023-02-23T01:02:47;98176.16;;;10.04;67.26
48622;BME280;34421;48.944;9.460;2023-02-23T01:05:13;98174.50;;;10.10;67.74
48622;BME280;34421;48.944;9.460;2023-02-23T01:07:38;98171.84;;;10.10;68.05
48622;BME280;34421;48.944;9.460;2023-02-23T01:10:04;98176.53;;;10.08;67.81
48622;BME280;34421;48.944;9.460;2023-02-23T01:12:43;98174.50;;;10.10;67.04
48622;BME280;34421;48.944;9.460;2023-02-23T01:15:08;98169.16;;;10.10;67.36
48622;BME280;34421;48.944;9.460;2023-02-23T01:17:36;98175.31;;;10.11;66.42
48622;BME280;34421;48.944;9.460;2023-02-23T01:20:01;98176.53;;;10.08;67.75
48622;BME280;34421;48.944;9.460;2023-02-23T01:22:26;98177.59;;;10.07;67.48
48622;BME280;34421;48.944;9.460;2023-02-23T01:24:51;98174.91;;;10.07;66.49
48622;BME280;34421;48.944;9.460;2023-02-23T01:27:16;98170.41;;;10.08;67.57
48622;BME280;34421;48.944;9.460;2023-02-23T01:29:42;98172.44;;;10.12;67.25
48622;BME280;34421;48.944;9.460;2023-02-23T01:32:07;98162.41;;;10.14;67.09
48622;BME280;34421;48.944;9.460;2023-02-23T01:34:32;98160.13;;;10.18;67.49
48622;BME280;34421;48.944;9.460;2023-02-23T01:36:57;98159.09;;;10.19;66.93
48622;BME280;34421;48.944;9.460;2023-02-23T01:39:22;98161.38;;;10.15;67.49
48622;BME280;34421;48.944;9.460;2023-02-23T01:41:48;98163.44;;;10.13;67.30
48622;BME280;34421;48.944;9.460;2023-02-23T01:46:44;98159.81;;;10.01;69.04
48622;BME280;34421;48.944;9.460;2023-02-23T01:49:10;98166.59;;;9.97;69.01
48622;BME280;34421;48.944;9.460;2023-02-23T01:51:39;98167.63;;;9.96;68.10
48622;BME280;34421;48.944;9.460;2023-02-23T01:54:29;98168.66;;;9.95;69.25
48622;BME280;34421;48.944;9.460;2023-02-23T01:56:53;98161.72;;;9.87;68.59
48622;BME280;34421;48.944;9.460;2023-02-23T01:59:23;98163.81;;;9.78;69.41
48622;BME280;34421;48.944;9.460;2023-02-23T02:01:52;98162.81;;;9.79;69.53
48622;BME280;34421;48.944;9.460;2023-02-23T02:04:18;98158.25;;;9.87;69.32
48622;BME280;34421;48.944;9.460;2023-02-23T02:06:44;98156.16;;;9.95;68.69
48622;BME280;34421;48.944;9.460;2023-02-23T02:09:12;98156.56;;;9.99;69.52
48622;BME280;34421;48.944;9.460;2023-02-23T02:11:42;98154.06;;;10.04;69.25
48622;BME280;34421;48.944;9.460;2023-02-23T02:14:17;98148.31;;;10.07;69.26
48622;BME280;34421;48.944;9.460;2023-02-23T02:24:56;98134.22;;;10.07;69.96
48622;BME280;34421;48.944;9.460;2023-02-23T02:41:04;98134.81;;;10.09;69.21
48622;BME280;34421;48.944;9.460;2023-02-23T02:48:34;98140.16;;;10.02;70.32
48622;BME280;34421;48.944;9.460;2023-02-23T02:51:23;98142.25;;;10.00;70.25
48622;BME280;34421;48.944;9.460;2023-02-23T02:54:02;98144.28;;;9.98;71.04
48622;BME280;34421;48.944;9.460;2023-02-23T02:56:31;98141.84;;;9.96;70.43
48622;BME280;34421;48.944;9.460;2023-02-23T02:58:57;98139.41;;;9.95;70.71
48622;BME280;34421;48.944;9.460;2023-02-23T03:01:23;98142.06;;;9.95;70.57
48622;BME280;34421;48.944;9.460;2023-02-23T03:04:21;98139.03;;;9.91;71.87
48622;BME280;34421;48.944;9.460;2023-02-23T03:07:28;98132.03;;;9.97;70.60
48622;BME280;34421;48.944;9.460;2023-02-23T03:10:32;98141.84;;;9.96;71.85
48622;BME280;34421;48.944;9.460;2023-02-23T03:21:59;98142.63;;;10.03;71.02
48622;BME280;34421;48.944;9.460;2023-02-23T03:24:51;98129.09;;;10.05;72.41
48622;BME280;34421;48.944;9.460;2023-02-23T03:27:42;98144.47;;;10.03;71.68
48622;BME280;34421;48.944;9.460;2023-02-23T03:33:16;98141.81;;;10.03;72.50
48622;BME280;34421;48.944;9.460;2023-02-23T03:41:33;98132.59;;;10.06;71.90
48622;BME280;34421;48.944;9.460;2023-02-23T03:44:21;98129.50;;;10.09;73.04
48622;BME280;34421;48.944;9.460;2023-02-23T03:47:07;98135.44;;;10.04;73.03
48622;BME280;34421;48.944;9.460;2023-02-23T03:49:53;98136.50;;;10.03;72.72
48622;BME280;34421;48.944;9.460;2023-02-23T03:52:45;98138.94;;;10.04;72.26
48622;BME280;34421;48.944;9.460;2023-02-23T03:55:33;98129.31;;;10.03;72.38
48622;BME280;34421;48.944;9.460;2023-02-23T03:58:20;98126.66;;;10.03;72.51
48622;BME280;34421;48.944;9.460;2023-02-23T04:01:06;98131.56;;;10.07;73.18
48622;BME280;34421;48.944;9.460;2023-02-23T04:03:51;98127.84;;;10.08;72.68
48622;BME280;34421;48.944;9.460;2023-02-23T04:06:37;98127.03;;;10.07;73.07
48622;BME280;34421;48.944;9.460;2023-02-23T04:09:22;98128.66;;;10.08;73.26
48622;BME280;34421;48.944;9.460;2023-02-23T04:12:27;98127.84;;;10.08;72.09
48622;BME280;34421;48.944;9.460;2023-02-23T04:17:43;98125.25;;;10.01;73.87
48622;BME280;34421;48.944;9.460;2023-02-23T04:20:09;98131.59;;;10.00;72.86
48622;BME280;34421;48.944;9.460;2023-02-23T04:22:36;98129.94;;;9.99;73.97
48622;BME280;34421;48.944;9.460;2023-02-23T04:25:01;98125.88;;;9.96;73.49
48622;BME280;34421;48.944;9.460;2023-02-23T04:27:26;98133.03;;;9.96;73.59
48622;BME280;34421;48.944;9.460;2023-02-23T04:29:52;98127.28;;;9.99;74.20
48622;BME280;34421;48.944;9.460;2023-02-23T04:32:18;98126.28;;;10.00;74.46
48622;BME280;34421;48.944;9.460;2023-02-23T04:34:44;98136.94;;;10.00;74.02
48622;BME280;34421;48.944;9.460;2023-02-23T04:37:10;98142.81;;;10.02;73.09
48622;BME280;34421;48.944;9.460;2023-02-23T04:39:35;98141.81;;;10.03;73.61
48622;BME280;34421;48.944;9.460;2023-02-23T04:42:01;98130.38;;;10.02;74.34
48622;BME280;34421;48.944;9.460;2023-02-23T04:44:26;98143.44;;;10.04;74.20
48622;BME280;34421;48.944;9.460;2023-02-23T04:46:51;98141.16;;;10.08;73.55
48622;BME280;34421;48.944;9.460;2023-02-23T04:49:16;98132.38;;;10.07;74.61
48622;BME280;34421;48.944;9.460;2023-02-23T04:51:42;98136.06;;;10.06;73.59
48622;BME280;34421;48.944;9.460;2023-02-23T04:54:07;98134.41;;;10.05;74.92
48622;BME280;34421;48.944;9.460;2023-02-23T04:56:32;98146.91;;;10.04;73.95
48622;BME280;34421;48.944;9.460;2023-02-23T04:58:57;98138.94;;;10.04;74.03
48622;BME280;34421;48.944;9.460;2023-02-23T05:01:23;98139.53;;;10.07;74.81
48622;BME280;34421;48.944;9.460;2023-02-23T05:03:48;98141.34;;;10.13;74.36
48622;BME280;34421;48.944;9.460;2023-02-23T05:06:14;98140.28;;;10.14;74.27
48622;BME280;34421;48.944;9.460;2023-02-23T05:08:40;98137.88;;;10.12;73.50
48622;BME280;34421;48.944;9.460;2023-02-23T05:11:05;98141.75;;;10.10;74.07
48622;BME280;34421;48.944;9.460;2023-02-23T05:13:31;98141.75;;;10.10;75.10
48622;BME280;34421;48.944;9.460;2023-02-23T05:15:56;98140.53;;;10.12;74.67
48622;BME280;34421;48.944;9.460;2023-02-23T05:18:21;98138.47;;;10.14;74.08
48622;BME280;34421;48.944;9.460;2023-02-23T05:20:47;98139.06;;;10.16;74.65
48622;BME280;34421;48.944;9.460;2023-02-23T05:23:13;98140.09;;;10.15;73.62
48622;BME280;34421;48.944;9.460;2023-02-23T05:25:38;98134.34;;;10.18;73.94
48622;BME280;34421;48.944;9.460;2023-02-23T05:28:03;98139.66;;;10.18;73.68
48622;BME280;34421;48.944;9.460;2023-02-23T05:30:29;98133.97;;;10.15;74.68
48622;BME280;34421;48.944;9.460;2023-02-23T05:32:54;98134.97;;;10.14;74.60
48622;BME280;34421;48.944;9.460;2023-02-23T05:35:19;98139.06;;;10.16;74.58
48622;BME280;34421;48.944;9.460;2023-02-23T05:37:45;98133.53;;;10.18;73.69
48622;BME280;34421;48.944;9.460;2023-02-23T05:40:10;98130.06;;;10.17;73.53
48622;BME280;34421;48.944;9.460;2023-02-23T05:42:35;98143.56;;;10.16;74.94
48622;BME280;34421;48.944;9.460;2023-02-23T05:45:02;98138.03;;;10.17;74.68
48622;BME280;34421;48.944;9.460;2023-02-23T05:47:29;98142.31;;;10.18;74.91
48622;BME280;34421;48.944;9.460;2023-02-23T05:49:55;98140.47;;;10.19;74.61
48622;BME280;34421;48.944;9.460;2023-02-23T05:52:20;98140.91;;;10.16;73.54
48622;BME280;34421;48.944;9.460;2023-02-23T05:54:45;98139.28;;;10.15;73.71
48622;BME280;34421;48.944;9.460;2023-02-23T05:57:10;98146.03;;;10.17;74.59
48622;BME280;34421;48.944;9.460;2023-02-23T05:59:35;98138.03;;;10.17;74.51
48622;BME280;34421;48.944;9.460;2023-02-23T06:02:01;98140.25;;;10.20;73.65
48622;BME280;34421;48.944;9.460;2023-02-23T06:04:28;98138.03;;;10.17;74.16
48622;BME280;34421;48.944;9.460;2023-02-23T06:06:53;98138.84;;;10.18;73.75
48622;BME280;34421;48.944;9.460;2023-02-23T06:09:19;98142.09;;;10.20;74.83
48622;BME280;34421;48.944;9.460;2023-02-23T06:11:44;98140.69;;;10.17;74.34
48622;BME280;34421;48.944;9.460;2023-02-23T06:14:09;98145.41;;;10.15;75.13
48622;BME280;34421;48.944;9.460;2023-02-23T06:16:34;98148.69;;;10.11;75.37
48622;BME280;34421;48.944;9.460;2023-02-23T06:19:00;98160.16;;;10.11;74.02
48622;BME280;34421;48.944;9.460;2023-02-23T06:21:25;98161.81;;;10.12;75.35
48622;BME280;34421;48.944;9.460;2023-02-23T06:23:50;98161.19;;;10.10;74.08
48622;BME280;34421;48.944;9.460;2023-02-23T06:26:16;98167.38;;;10.04;74.05
48622;BME280;34421;48.944;9.460;2023-02-23T06:28:41;98165.91;;;10.08;74.92
48622;BME280;34421;48.944;9.460;2023-02-23T06:31:07;98170.59;;;10.13;74.08
48622;BME280;34421;48.944;9.460;2023-02-23T06:33:32;98178.94;;;10.16;74.23
48622;BME280;34421;48.944;9.460;2023-02-23T06:35:57;98175.28;;;10.17;74.23
48622;BME280;34421;48.944;9.460;2023-02-23T06:38:22;98169.13;;;10.17;75.37
48622;BME280;34421;48.944;9.460;2023-02-23T06:40:48;98173.63;;;10.16;74.30
48622;BME280;34421;48.944;9.460;2023-02-23T06:43:13;98176.91;;;10.18;75.79
48622;BME280;34421;48.944;9.460;2023-02-23T06:45:38;98175.22;;;10.24;74.76
48622;BME280;34421;48.944;9.460;2023-02-23T06:48:04;98174.03;;;10.26;75.78
48622;BME280;34421;48.944;9.460;2023-02-23T06:50:30;98167.22;;;10.31;74.99
48622;BME280;34421;48.944;9.460;2023-02-23T06:52:55;98179.91;;;10.35;75.48
48622;BME280;34421;48.944;9.460;2023-02-23T06:55:21;98178.63;;;10.38;74.72
48622;BME280;34421;48.944;9.460;2023-02-23T06:57:50;98181.09;;;10.39;75.46
48622;BME280;34421;48.944;9.460;2023-02-23T07:00:17;98187.84;;;10.42;75.83
48622;BME280;34421;48.944;9.460;2023-02-23T07:02:42;98187.03;;;10.41;75.23
48622;BME280;34421;48.944;9.460;2023-02-23T07:05:09;98188.00;;;10.47;75.71
48622;BME280;34421;48.944;9.460;2023-02-23T07:07:36;98185.50;;;10.52;75.05
48622;BME280;34421;48.944;9.460;2023-02-23T07:10:02;98190.75;;;10.59;74.61
48622;BME280;34421;48.944;9.460;2023-02-23T07:12:28;98185.97;;;10.67;74.93
48622;BME280;34421;48.944;9.460;2023-02-23T07:14:54;98190.59;;;10.79;74.28
48622;BME280;34421;48.944;9.460;2023-02-23T07:17:19;98190.31;;;10.87;74.49
48622;BME280;34421;48.944;9.460;2023-02-23T07:19:44;98192.13;;;10.93;73.88
48622;BME280;34421;48.944;9.460;2023-02-23T07:22:09;98196.13;;;11.02;74.78
48622;BME280;34421;48.944;9.460;2023-02-23T07:24:34;98189.19;;;11.01;74.53
48622;BME280;34421;48.944;9.460;2023-02-23T07:27:00;98203.91;;;11.04;74.65
48622;BME280;34421;48.944;9.460;2023-02-23T07:29:25;98201.00;;;11.05;73.94
48622;BME280;34421;48.944;9.460;2023-02-23T07:31:52;98198.78;;;11.02;74.28
48622;BME280;34421;48.944;9.460;2023-02-23T07:34:17;98208.19;;;11.05;74.87
48622;BME280;34421;48.944;9.460;2023-02-23T07:36:42;98202.78;;;11.11;73.31
48622;BME280;34421;48.944;9.460;2023-02-23T07:39:07;98199.69;;;11.14;73.61
48622;BME280;34421;48.944;9.460;2023-02-23T07:41:33;98206.06;;;11.13;73.98
48622;BME280;34421;48.944;9.460;2023-02-23T07:43:58;98207.69;;;11.14;72.88
48622;BME280;34421;48.944;9.460;2023-02-23T07:46:24;98209.91;;;11.17;73.87
48622;BME280;34421;48.944;9.460;2023-02-23T07:48:49;98210.50;;;11.20;74.25
48622;BME280;34421;48.944;9.460;2023-02-23T07:51:15;98205.53;;;11.23;73.48
48622;BME280;34421;48.944;9.460;2023-02-23T07:53:41;98202.69;;;11.25;73.74
48622;BME280;34421;48.944;9.460;2023-02-23T07:56:07;98213.09;;;11.26;72.61
48622;BME280;34421;48.944;9.460;2023-02-23T07:58:34;98211.84;;;11.29;73.50
48622;BME280;34421;48.944;9.460;2023-02-23T08:01:00;98210.97;;;11.35;73.62
48622;BME280;34421;48.944;9.460;2023-02-23T08:03:25;98222.22;;;11.37;73.11
48622;BME280;34421;48.944;9.460;2023-02-23T08:05:51;98210.69;;;11.43;72.67
48622;BME280;34421;48.944;9.460;2023-02-23T08:08:16;98212.09;;;11.46;73.09
48622;BME280;34421;48.944;9.460;2023-02-23T08:10:41;98214.88;;;11.51;73.05
48622;BME280;34421;48.944;9.460;2023-02-23T08:13:06;98220.00;;;11.52;73.17
48622;BME280;34421;48.944;9.460;2023-02-23T08:15:32;98216.44;;;11.58;73.73
48622;BME280;34421;48.944;9.460;2023-02-23T08:17:57;98218.06;;;11.59;73.45
48622;BME280;34421;48.944;9.460;2023-02-23T08:20:23;98216.72;;;11.69;73.27
48622;BME280;34421;48.944;9.460;2023-02-23T08:22:54;98220.50;;;11.79;72.28
48622;BME280;34421;48.944;9.460;2023-02-23T08:25:19;98219.63;;;11.85;73.43
48622;BME280;34421;48.944;9.460;2023-02-23T08:27:45;98222.31;;;11.85;72.90
48622;BME280;34421;48.944;9.460;2023-02-23T08:30:11;98226.59;;;11.86;72.92
48622;BME280;34421;48.944;9.460;2023-02-23T08:32:38;98221.03;;;11.88;72.41
48622;BME280;34421;48.944;9.460;2023-02-23T08:35:03;98227.94;;;11.96;72.91
48622;BME280;34421;48.944;9.460;2023-02-23T08:37:29;98229.25;;;12.05;72.84
48622;BME280;34421;48.944;9.460;2023-02-23T08:39:54;98227.91;;;12.14;73.06
48622;BME280;34421;48.944;9.460;2023-02-23T08:42:19;98226.06;;;12.26;72.81
48622;BME280;34421;48.944;9.460;2023-02-23T08:44:45;98224.25;;;12.39;72.14
48622;BME280;34421;48.944;9.460;2023-02-23T08:47:10;98224.03;;;12.52;71.72
48622;BME280;34421;48.944;9.460;2023-02-23T08:49:35;98228.41;;;12.65;71.86
48622;BME280;34421;48.944;9.460;2023-02-23T08:52:00;98228.03;;;12.73;71.53
48622;BME280;34421;48.944;9.460;2023-02-23T08:54:26;98222.81;;;12.78;71.26
48622;BME280;34421;48.944;9.460;2023-02-23T08:56:54;98229.69;;;12.86;71.50
48622;BME280;34421;48.944;9.460;2023-02-23T08:59:19;98227.97;;;12.91;71.03
48622;BME280;34421;48.944;9.460;2023-02-23T09:01:44;98235.53;;;12.94;71.18
48622;BME280;34421;48.944;9.460;2023-02-23T09:04:09;98239.34;;;12.98;70.65
48622;BME280;34421;48.944;9.460;2023-02-23T09:06:35;98236.22;;;13.02;70.77
48622;BME280;34421;48.944;9.460;2023-02-23T09:09:01;98237.28;;;13.12;70.59
48622;BME280;34421;48.944;9.460;2023-02-23T09:11:26;98241.38;;;13.27;70.28
48622;BME280;34421;48.944;9.460;2023-02-23T09:13:51;98234.25;;;13.32;69.95
48622;BME280;34421;48.944;9.460;2023-02-23T09:16:17;98242.41;;;13.37;70.22
48622;BME280;34421;48.944;9.460;2023-02-23T09:18:42;98238.31;;;13.47;69.77
48622;BME280;34421;48.944;9.460;2023-02-23T09:21:09;98238.56;;;13.57;69.68
48622;BME280;34421;48.944;9.460;2023-02-23T09:23:42;98243.50;;;13.65;69.33
48622;BME280;34421;48.944;9.460;2023-02-23T09:26:07;98237.00;;;13.73;69.13
48622;BME280;34421;48.944;9.460;2023-02-23T09:28:33;98239.53;;;13.79;69.11
48622;BME280;34421;48.944;9.460;2023-02-23T09:31:09;98239.28;;;13.93;68.84
48622;BME280;34421;48.944;9.460;2023-02-23T09:33:35;98251.34;;;14.07;68.77
48622;BME280;34421;48.944;9.460;2023-02-23T09:36:03;98248.56;;;14.30;68.37
48622;BME280;34421;48.944;9.460;2023-02-23T09:38:28;98247.31;;;14.50;67.10
48622;BME280;34421;48.944;9.460;2023-02-23T09:40:54;98246.53;;;14.66;66.94
48622;BME280;34421;48.944;9.460;2023-02-23T09:45:47;98242.69;;;14.91;65.62
48622;BME280;34421;48.944;9.460;2023-02-23T09:48:14;98239.50;;;14.94;65.15
48622;BME280;34421;48.944;9.460;2023-02-23T09:50:43;98239.91;;;15.02;65.59
48622;BME280;34421;48.944;9.460;2023-02-23T09:53:14;98230.88;;;15.09;65.19
48622;BME280;34421;48.944;9.460;2023-02-23T09:55:44;98241.53;;;15.20;64.32
48622;BME280;34421;48.944;9.460;2023-02-23T09:58:18;98235.72;;;15.28;64.31
48622;BME280;34421;48.944;9.460;2023-02-23T10:00:45;98237.19;;;15.36;63.94
48622;BME280;34421;48.944;9.460;2023-02-23T10:05:52;98237.16;;;15.53;63.46
48622;BME280;34421;48.944;9.460;2023-02-23T10:13:50;98241.25;;;16.27;61.72
48622;BME280;34421;48.944;9.460;2023-02-23T10:18:57;98241.69;;;17.00;59.15
48622;BME280;34421;48.944;9.460;2023-02-23T10:21:41;98242.59;;;17.53;57.42
48622;BME280;34421;48.944;9.460;2023-02-23T10:26:40;98236.50;;;19.33;52.49
48622;BME280;34421;48.944;9.460;2023-02-23T10:29:41;98236.50;;;20.23;51.25
48622;BME280;34421;48.944;9.460;2023-02-23T10:32:14;98239.81;;;22.00;47.19
48622;BME280;34421;48.944;9.460;2023-02-23T10:34:40;98233.34;;;22.77;45.58
48622;BME280;34421;48.944;9.460;2023-02-23T10:37:08;98224.75;;;24.68;41.19
48622;BME280;34421;48.944;9.460;2023-02-23T10:39:34;98222.78;;;25.67;38.80
48622;BME280;34421;48.944;9.460;2023-02-23T10:42:04;98227.59;;;27.23;35.79
48622;BME280;34421;48.944;9.460;2023-02-23T10:44:30;98227.50;;;29.47;32.15
48622;BME280;34421;48.944;9.460;2023-02-23T10:47:05;98220.00;;;30.05;29.55
48622;BME280;34421;48.944;9.460;2023-02-23T10:49:38;98221.50;;;29.08;31.02
48622;BME280;34421;48.944;9.460;2023-02-23T10:52:04;98216.97;;;28.28;31.62
48622;BME280;34421;48.944;9.460;2023-02-23T10:56:59;98226.19;;;29.65;29.88
48622;BME280;34421;48.944;9.460;2023-02-23T10:59:25;98222.00;;;30.85;27.73
48622;BME280;34421;48.944;9.460;2023-02-23T11:01:51;98216.28;;;31.98;26.57
48622;BME280;34421;48.944;9.460;2023-02-23T11:04:18;98215.66;;;32.24;25.12
48622;BME280;34421;48.944;9.460;2023-02-23T11:06:44;98213.63;;;32.76;25.51
48622;BME280;34421;48.944;9.460;2023-02-23T11:09:23;98217.59;;;33.17;24.66
48622;BME280;34421;48.944;9.460;2023-02-23T11:12:01;98204.28;;;33.95;24.12
48622;BME280;34421;48.944;9.460;2023-02-23T11:14:29;98214.50;;;34.18;22.86
48622;BME280;34421;48.944;9.460;2023-02-23T11:16:54;98205.03;;;32.81;24.00
48622;BME280;34421;48.944;9.460;2023-02-23T11:19:23;98212.47;;;31.11;25.76
48622;BME280;34421;48.944;9.460;2023-02-23T11:21:50;98208.19;;;29.56;26.91
48622;BME280;34421;48.944;9.460;2023-02-23T11:24:32;98203.81;;;28.22;28.98
48622;BME280;34421;48.944;9.460;2023-02-23T11:27:00;98201.72;;;27.03;29.99
48622;BME280;34421;48.944;9.460;2023-02-23T11:31:53;98198.19;;;25.50;32.30
48622;BME280;34421;48.944;9.460;2023-02-23T11:34:32;98190.66;;;25.16;33.59
48622;BME280;34421;48.944;9.460;2023-02-23T11:37:05;98197.03;;;24.89;33.59
48622;BME280;34421;48.944;9.460;2023-02-23T11:39:31;98189.13;;;24.56;34.15
48622;BME280;34421;48.944;9.460;2023-02-23T11:42:05;98189.53;;;24.13;34.75
48622;BME280;34421;48.944;9.460;2023-02-23T11:44:36;98198.22;;;23.60;35.33
48622;BME280;34421;48.944;9.460;2023-02-23T11:47:02;98192.25;;;23.03;36.02
48622;BME280;34421;48.944;9.460;2023-02-23T11:49:30;98184.69;;;22.81;35.84
48622;BME280;34421;48.944;9.460;2023-02-23T11:51:59;98192.41;;;22.41;36.96
48622;BME280;34421;48.944;9.460;2023-02-23T11:54:27;98198.78;;;22.07;36.94
48622;BME280;34421;48.944;9.460;2023-02-23T11:56:54;98181.88;;;21.96;37.27
48622;BME280;34421;48.944;9.460;2023-02-23T11:59:40;98190.88;;;21.92;37.92
48622;BME280;34421;48.944;9.460;2023-02-23T12:02:11;98181.88;;;21.96;37.61
48622;BME280;34421;48.944;9.460;2023-02-23T12:04:43;98180.28;;;21.95;39.08
48622;BME280;34421;48.944;9.460;2023-02-23T12:12:47;98175.56;;;22.01;38.17
48622;BME280;34421;48.944;9.460;2023-02-23T12:15:35;98177.75;;;21.80;37.75
48622;BME280;34421;48.944;9.460;2023-02-23T12:18:05;98172.00;;;21.63;38.80
48622;BME280;34421;48.944;9.460;2023-02-23T12:20:34;98166.66;;;21.57;38.72
48622;BME280;34421;48.944;9.460;2023-02-23T12:23:08;98159.53;;;21.61;38.91
48622;BME280;34421;48.944;9.460;2023-02-23T12:28:04;98165.44;;;21.69;39.63
48622;BME280;34421;48.944;9.460;2023-02-23T12:30:50;98159.09;;;21.54;39.15
48622;BME280;34421;48.944;9.460;2023-02-23T12:33:40;98152.78;;;21.40;39.55
48622;BME280;34421;48.944;9.460;2023-02-23T12:41:24;98156.63;;;20.76;40.74
48622;BME280;34421;48.944;9.460;2023-02-23T12:46:29;98151.91;;;20.23;40.60
48622;BME280;34421;48.944;9.460;2023-02-23T12:51:41;98147.91;;;19.45;41.37
48622;BME280;34421;48.944;9.460;2023-02-23T12:54:09;98146.13;;;19.20;41.51
48622;BME280;34421;48.944;9.460;2023-02-23T13:10:11;98136.75;;;18.72;43.81
48622;BME280;34421;48.944;9.460;2023-02-23T13:13:01;98138.91;;;18.64;43.68
48622;BME280;34421;48.944;9.460;2023-02-23T13:25:39;98142.66;;;18.22;44.60
48622;BME280;34421;48.944;9.460;2023-02-23T13:28:07;98139.19;;;18.27;45.01
48622;BME280;34421;48.944;9.460;2023-02-23T13:30:38;98133.78;;;18.32;45.02
48622;BME280;34421;48.944;9.460;2023-02-23T13:33:22;98137.81;;;18.40;44.45
48622;BME280;34421;48.944;9.460;2023-02-23T13:35:48;98131.09;;;18.48;44.81
48622;BME280;34421;48.944;9.460;2023-02-23T13:41:01;98132.97;;;18.52;44.40
48622;BME280;34421;48.944;9.460;2023-02-23T13:43:36;98135.66;;;18.52;44.51
48622;BME280;34421;48.944;9.460;2023-02-23T13:46:11;98129.75;;;18.45;44.58
48622;BME280;34421;48.944;9.460;2023-02-23T13:48:56;98130.28;;;18.42;44.14
48622;BME280;34421;48.944;9.460;2023-02-23T13:56:22;98124.63;;;18.18;44.52
48622;BME280;34421;48.944;9.460;2023-02-23T13:58:50;98126.75;;;18.11;44.81
48622;BME280;34421;48.944;9.460;2023-02-23T14:01:17;98125.66;;;18.02;45.53
48622;BME280;34421;48.944;9.460;2023-02-23T14:03:45;98124.03;;;17.85;45.31
48622;BME280;34421;48.944;9.460;2023-02-23T14:06:12;98122.91;;;17.76;45.16
48622;BME280;34421;48.944;9.460;2023-02-23T14:08:39;98122.59;;;17.72;45.23
48622;BME280;34421;48.944;9.460;2023-02-23T14:11:06;98118.03;;;17.73;44.96
48622;BME280;34421;48.944;9.460;2023-02-23T14:13:33;98116.41;;;17.72;44.76
48622;BME280;34421;48.944;9.460;2023-02-23T14:16:09;98123.41;;;17.68;45.17
48622;BME280;34421;48.944;9.460;2023-02-23T14:18:35;98120.97;;;17.61;46.08
48622;BME280;34421;48.944;9.460;2023-02-23T14:31:34;98097.44;;;17.36;46.86
48622;BME280;34421;48.944;9.460;2023-02-23T14:34:02;98104.16;;;17.34;47.53
48622;BME280;34421;48.944;9.460;2023-02-23T14:36:32;98106.56;;;17.30;47.70
48622;BME280;34421;48.944;9.460;2023-02-23T14:38:59;98110.31;;;17.24;48.24
48622;BME280;34421;48.944;9.460;2023-02-23T14:46:37;98104.69;;;16.78;50.55
48622;BME280;34421;48.944;9.460;2023-02-23T14:49:09;98104.34;;;16.69;51.23
48622;BME280;34421;48.944;9.460;2023-02-23T14:51:46;98096.16;;;16.54;50.92
48622;BME280;34421;48.944;9.460;2023-02-23T14:56:47;98107.84;;;16.37;51.85
48622;BME280;34421;48.944;9.460;2023-02-23T14:59:17;98104.59;;;16.35;51.80
48622;BME280;34421;48.944;9.460;2023-02-23T15:01:45;98102.41;;;16.27;52.39
48622;BME280;34421;48.944;9.460;2023-02-23T15:04:12;98111.22;;;16.23;51.94
48622;BME280;34421;48.944;9.460;2023-02-23T15:06:38;98104.47;;;16.20;52.15
48622;BME280;34421;48.944;9.460;2023-02-23T15:09:06;98119.22;;;16.17;52.27
48622;BME280;34421;48.944;9.460;2023-02-23T15:11:31;98115.69;;;16.12;52.61
48622;BME280;34421;48.944;9.460;2023-02-23T15:13:57;98112.41;;;16.05;52.42
48622;BME280;34421;48.944;9.460;2023-02-23T15:16:26;98115.19;;;15.88;52.29
48622;BME280;34421;48.944;9.460;2023-02-23T15:18:51;98118.88;;;15.82;53.08
48622;BME280;34421;48.944;9.460;2023-02-23T15:21:21;98123.22;;;15.83;52.19
48622;BME280;34421;48.944;9.460;2023-02-23T15:23:48;98126.84;;;15.71;52.68
48622;BME280;34421;48.944;9.460;2023-02-23T15:26:18;98126.38;;;15.58;52.74
48622;BME280;34421;48.944;9.460;2023-02-23T15:28:44;98128.88;;;15.42;52.86
48622;BME280;34421;48.944;9.460;2023-02-23T15:31:10;98119.84;;;15.26;53.67